Airfield :







YOU CAN JOIN US ON...

 
LOGIN :

Register | Disclaimer

   EN    FR    IT 

 









Legend :    VFR   Marginal VFR   IFR   Intensive IFR   Very Intensive IFR
Visi :
Ceiling :
>= 8 km
>= 3000ft
5 to 8 km
1000 to 3000 ft
1500m to 5 km
500 to 1000 ft
800 to 1500m
200 to 500 ft
< 800m
< 200 ft
Symbols :   Thunderstorms  Fog  Heavy snow  Heavy precipitations  Wind > 20 kt






- Airport Elevation : 198 ft
- IATA code : STM


SBSN - Maestro Wilson Fonseca Int.

CURRENT METAR :
  • 151700Z 32005KT 9999 FEW018 FEW020TCU SCT100 28/24 Q1010

EXPIRED METARs :
  • 151600Z 36006KT 9999 SCT018 FEW020TCU SCT100 28/24 Q1011
  • 151500Z 32004KT 9999 SCT017 BKN100 27/24 Q1012

TAF TAF SBSN
Valid from the 15 at 18:00 until the 16 at 18:00 UTC


151500Z 1518/1618 10010KT 9999 SCT020 FEW025TCU TN24/1609Z TX31/1617Z
PROB40 1520/1522 5000 TSRA BKN023 FEW030CB
BECMG 1522/1524 17005KT SCT020
PROB40 1606/1610 5000 TSRA SCT020 FEW030CB
BECMG 1610/1612 09008KT SCT015 RMK PGU



MET'MAP, your aeronautical weather chart ! - Copyright ORBIFLY December 2007 - Disclaimer

ORBIFLY MET'MAP TEAM :

Programming & Development : Alexandra Zaïnal
Concept & original design : Baudouin d'Aumeries
Assistance for programming : Marc-Olivier Méhu
Technical & hardware support : Manuel Goepfert

Contact : metmap@orbifly.com




SOURCES & CREDITS :

   NOAA